createdAt,value
2022-09-11T00:01:13.863Z,19.50
2022-09-11T00:03:42.751Z,19.77
2022-09-11T00:06:13.572Z,18.53
2022-09-11T00:08:42.075Z,19.50
2022-09-11T00:11:11.534Z,18.87
2022-09-11T00:13:40.336Z,19.13
2022-09-11T00:16:20.603Z,18.83
2022-09-11T00:18:49.319Z,18.87
2022-09-11T00:21:23.174Z,18.60
2022-09-11T00:23:51.680Z,18.40
2022-09-11T00:26:20.021Z,18.57
2022-09-11T00:28:48.310Z,19.03
2022-09-11T00:31:18.757Z,17.53
2022-09-11T00:33:47.133Z,17.73
2022-09-11T00:36:16.428Z,18.60
2022-09-11T00:38:46.423Z,18.47
2022-09-11T00:41:19.082Z,19.70
2022-09-11T00:43:55.365Z,19.93
2022-09-11T00:46:26.214Z,19.50
2022-09-11T00:48:56.054Z,18.90
2022-09-11T00:51:27.128Z,19.17
2022-09-11T00:53:55.643Z,18.50
2022-09-11T00:56:23.936Z,18.03
2022-09-11T00:58:52.159Z,18.60
2022-09-11T01:01:20.306Z,18.40
2022-09-11T01:03:50.138Z,18.73
2022-09-11T01:06:20.866Z,19.53
2022-09-11T01:08:49.065Z,18.70
2022-09-11T01:11:22.415Z,19.87
2022-09-11T01:13:53.801Z,20.53
2022-09-11T01:16:24.421Z,19.60
2022-09-11T01:18:56.900Z,21.07
2022-09-11T01:21:47.222Z,20.00
2022-09-11T01:24:24.658Z,21.97
2022-09-11T01:27:03.762Z,21.43
2022-09-11T01:29:35.715Z,22.67
2022-09-11T01:32:06.095Z,19.87
2022-09-11T01:34:36.977Z,21.30
2022-09-11T01:37:06.739Z,21.87
2022-09-11T01:39:41.940Z,21.20
2022-09-11T01:42:14.863Z,20.77
2022-09-11T01:44:46.052Z,21.87
2022-09-11T01:47:14.209Z,22.80
2022-09-11T01:49:45.089Z,21.37
2022-09-11T01:52:14.545Z,22.80
2022-09-11T01:54:46.016Z,22.17
2022-09-11T01:57:17.854Z,22.50
2022-09-11T01:59:53.491Z,21.73
2022-09-11T02:02:24.037Z,22.67
2022-09-11T02:04:56.686Z,22.00
2022-09-11T02:07:26.057Z,21.83
2022-09-11T02:09:59.464Z,22.43
2022-09-11T02:12:31.180Z,22.90
2022-09-11T02:15:00.857Z,21.47
2022-09-11T02:17:32.850Z,22.13
2022-09-11T02:20:02.368Z,22.60
2022-09-11T02:22:31.112Z,24.20
2022-09-11T02:24:59.241Z,23.03
2022-09-11T02:27:28.575Z,23.33
2022-09-11T02:29:56.692Z,24.63
2022-09-11T02:32:27.070Z,23.93
2022-09-11T02:34:55.665Z,23.13
2022-09-11T02:37:31.498Z,23.80
2022-09-11T02:40:21.436Z,20.67
2022-09-11T02:42:58.531Z,23.80
2022-09-11T02:45:35.669Z,24.67
2022-09-11T02:48:12.591Z,24.03
2022-09-11T02:50:45.786Z,23.43
2022-09-11T02:53:15.743Z,24.37
2022-09-11T02:55:50.341Z,18.00
2022-09-11T02:58:21.392Z,15.10
2022-09-11T03:00:51.000Z,14.13
2022-09-11T03:03:21.250Z,12.73
2022-09-11T03:05:49.788Z,14.07
2022-09-11T03:08:18.066Z,14.50
2022-09-11T03:10:47.252Z,15.07
2022-09-11T03:13:15.837Z,16.37
2022-09-11T03:15:44.666Z,16.47
2022-09-11T03:18:13.725Z,18.23
2022-09-11T03:20:45.833Z,13.73
2022-09-11T03:23:14.286Z,10.67
2022-09-11T03:25:42.597Z,10.47
2022-09-11T03:28:10.854Z,8.10
2022-09-11T03:30:38.960Z,8.20
2022-09-11T03:33:08.531Z,7.77
2022-09-11T03:35:36.760Z,8.20
2022-09-11T03:38:06.415Z,11.43
2022-09-11T03:40:34.586Z,18.10
2022-09-11T03:43:02.891Z,22.00
2022-09-11T03:45:31.095Z,14.33
2022-09-11T03:47:59.291Z,10.50
2022-09-11T03:50:28.245Z,13.47
2022-09-11T03:52:56.374Z,15.70
2022-09-11T03:55:27.617Z,17.33
2022-09-11T03:57:55.854Z,16.77
2022-09-11T04:00:24.125Z,17.43
2022-09-11T04:02:52.393Z,16.93
2022-09-11T04:05:20.799Z,13.70
2022-09-11T04:07:50.122Z,8.50
2022-09-11T04:10:18.357Z,10.23
2022-09-11T04:12:47.883Z,8.20
2022-09-11T04:15:16.529Z,8.03
2022-09-11T04:17:44.625Z,7.27
2022-09-11T04:20:12.761Z,9.13
2022-09-11T04:22:41.658Z,14.07
2022-09-11T04:25:11.130Z,17.37
2022-09-11T04:27:39.865Z,13.40
2022-09-11T04:30:11.853Z,13.57
2022-09-11T04:32:40.127Z,24.43
2022-09-11T04:35:09.198Z,25.40
2022-09-11T04:37:37.429Z,26.50
2022-09-11T04:40:06.253Z,26.10
2022-09-11T04:42:34.367Z,19.07
2022-09-11T04:45:02.506Z,13.93
2022-09-11T04:47:32.475Z,25.27
2022-09-11T04:50:02.222Z,26.77
2022-09-11T04:52:30.413Z,27.93
2022-09-11T04:54:58.619Z,27.63
2022-09-11T04:57:26.878Z,27.33
2022-09-11T04:59:55.379Z,27.50
2022-09-11T05:02:23.883Z,22.30
2022-09-11T05:04:54.061Z,16.53
2022-09-11T05:07:22.158Z,14.60
2022-09-11T05:09:50.204Z,14.13
2022-09-11T05:12:18.334Z,14.27
2022-09-11T05:14:46.635Z,16.93
2022-09-11T05:17:17.953Z,25.30
2022-09-11T05:19:46.154Z,29.60
2022-09-11T05:22:16.007Z,29.43
2022-09-11T05:24:44.197Z,29.17
2022-09-11T05:27:12.325Z,28.47
2022-09-11T05:29:40.451Z,25.03
2022-09-11T05:32:08.679Z,28.40
2022-09-11T05:34:36.872Z,29.17
2022-09-11T05:37:05.681Z,30.13
2022-09-11T05:39:35.218Z,30.30
2022-09-11T05:42:04.674Z,32.10
2022-09-11T05:44:32.797Z,31.57
2022-09-11T05:47:00.976Z,31.97
2022-09-11T05:49:29.151Z,31.13
2022-09-11T05:51:57.220Z,31.73
2022-09-11T05:54:25.440Z,31.20
2022-09-11T05:56:55.767Z,26.07
2022-09-11T05:59:25.134Z,26.60
2022-09-11T06:01:54.399Z,24.97
2022-09-11T06:04:23.210Z,26.43
2022-09-11T06:06:51.372Z,26.77
2022-09-11T06:09:19.663Z,25.47
2022-09-11T06:11:47.862Z,28.23
2022-09-11T06:14:17.591Z,25.40
2022-09-11T06:16:45.846Z,20.70
2022-09-11T06:19:13.994Z,20.73
2022-09-11T06:21:42.059Z,23.10
2022-09-11T06:24:10.333Z,22.17
2022-09-11T06:26:38.481Z,23.57
2022-09-11T06:29:07.826Z,22.03
2022-09-11T06:31:38.827Z,20.00
2022-09-11T06:34:07.106Z,16.87
2022-09-11T06:36:35.378Z,16.83
2022-09-11T06:39:03.610Z,19.47
2022-09-11T06:41:33.074Z,16.67
2022-09-11T06:44:01.227Z,17.27
2022-09-11T06:46:29.512Z,18.13
2022-09-11T06:48:59.097Z,20.23
2022-09-11T06:51:27.576Z,24.00
2022-09-11T06:53:57.799Z,22.63
2022-09-11T06:56:26.222Z,22.67
2022-09-11T06:58:54.391Z,23.30
2022-09-11T07:01:23.602Z,21.53
2022-09-11T07:03:53.357Z,17.50
2022-09-11T07:06:24.669Z,15.03
2022-09-11T07:08:53.402Z,15.90
2022-09-11T07:11:21.594Z,20.10
2022-09-11T07:13:49.763Z,21.23
2022-09-11T07:16:17.896Z,21.53
2022-09-11T07:18:47.425Z,22.63
2022-09-11T07:21:16.395Z,24.23
2022-09-11T07:23:48.212Z,23.80
2022-09-11T07:26:16.628Z,23.13
2022-09-11T07:28:45.031Z,22.23
2022-09-11T07:31:17.478Z,22.33
2022-09-11T07:33:49.176Z,19.83
2022-09-11T07:36:18.786Z,20.40
2022-09-11T07:38:49.029Z,19.67
2022-09-11T07:41:20.541Z,18.43
2022-09-11T07:43:49.380Z,18.20
2022-09-11T07:46:17.487Z,15.07
2022-09-11T07:48:45.620Z,13.47
2022-09-11T07:51:14.935Z,11.83
2022-09-11T07:53:44.070Z,12.87
2022-09-11T07:56:15.016Z,12.47
2022-09-11T07:58:44.093Z,10.07
2022-09-11T08:01:13.502Z,8.60
2022-09-11T08:03:43.129Z,6.87
2022-09-11T08:06:13.525Z,6.70
2022-09-11T08:08:41.666Z,6.43
2022-09-11T08:11:10.861Z,5.30
2022-09-11T08:13:40.470Z,5.27
2022-09-11T08:16:08.801Z,4.70
2022-09-11T08:18:37.291Z,4.77
2022-09-11T08:21:08.553Z,5.30
2022-09-11T08:23:40.780Z,5.50
2022-09-11T08:26:09.955Z,5.10
2022-09-11T08:28:39.973Z,4.50
2022-09-11T08:31:08.255Z,5.30
2022-09-11T08:33:37.862Z,4.60
2022-09-11T08:36:08.449Z,3.63
2022-09-11T08:38:36.686Z,4.70
2022-09-11T08:41:12.247Z,4.33
2022-09-11T08:43:50.930Z,4.40
2022-09-11T08:46:19.109Z,4.40
2022-09-11T08:48:51.275Z,3.23
2022-09-11T08:51:19.611Z,5.90
2022-09-11T08:53:49.015Z,4.87
2022-09-11T08:56:18.684Z,5.00
2022-09-11T08:59:06.439Z,4.30
2022-09-11T09:01:37.790Z,4.60
2022-09-11T09:04:15.640Z,3.60
2022-09-11T09:06:51.124Z,3.53
2022-09-11T09:09:22.938Z,3.63
2022-09-11T09:11:55.661Z,3.40
2022-09-11T09:15:05.993Z,3.70
2022-09-11T09:17:38.087Z,3.47
2022-09-11T09:20:11.062Z,4.70
2022-09-11T09:22:41.055Z,5.03
2022-09-11T09:25:12.728Z,5.47
2022-09-11T09:27:44.115Z,4.47
2022-09-11T09:30:16.197Z,4.20
2022-09-11T09:32:48.821Z,4.40
2022-09-11T09:35:18.127Z,3.87
2022-09-11T09:37:46.674Z,3.73
2022-09-11T09:40:18.761Z,4.33
2022-09-11T09:43:17.349Z,4.33
2022-09-11T09:46:06.366Z,3.70
2022-09-11T09:48:37.141Z,4.27
2022-09-11T09:51:05.375Z,4.00
2022-09-11T09:53:36.217Z,3.73
2022-09-11T09:56:05.599Z,4.03
2022-09-11T09:58:35.436Z,3.53
2022-09-11T10:01:03.769Z,3.50
2022-09-11T10:03:31.918Z,3.17
2022-09-11T10:06:02.890Z,3.27
2022-09-11T10:08:34.785Z,3.53
2022-09-11T10:11:03.961Z,3.37
2022-09-11T10:13:33.437Z,3.23
2022-09-11T10:16:03.706Z,2.83
2022-09-11T10:18:43.996Z,2.97
2022-09-11T10:21:21.781Z,3.10
2022-09-11T10:23:52.224Z,2.80
2022-09-11T10:26:23.159Z,3.73
2022-09-11T10:28:52.635Z,4.17
2022-09-11T10:31:22.952Z,4.23
2022-09-11T10:33:55.666Z,4.13
2022-09-11T10:36:27.226Z,3.03
2022-09-11T10:38:59.182Z,4.77
2022-09-11T10:41:27.888Z,4.00
2022-09-11T10:43:58.905Z,3.50
2022-09-11T10:46:39.615Z,3.40
2022-09-11T10:49:26.792Z,3.70
2022-09-11T10:52:05.494Z,3.70
2022-09-11T10:54:46.529Z,3.07
2022-09-11T10:57:19.509Z,3.33
2022-09-11T11:00:02.407Z,3.77
2022-09-11T11:02:31.874Z,3.60
2022-09-11T11:05:02.057Z,3.60
2022-09-11T11:07:47.644Z,3.83
2022-09-11T11:10:23.629Z,4.33
2022-09-11T11:12:58.952Z,3.57
2022-09-11T11:15:32.496Z,3.00
2022-09-11T11:18:14.171Z,3.37
2022-09-11T11:20:46.913Z,3.60
2022-09-11T11:23:24.495Z,3.00
2022-09-11T11:25:57.629Z,3.43
2022-09-11T11:28:47.790Z,3.03
2022-09-11T11:31:23.853Z,2.87
2022-09-11T11:34:04.235Z,3.53
2022-09-11T11:36:34.422Z,3.30
2022-09-11T11:39:10.044Z,2.67
2022-09-11T11:41:44.970Z,2.37
2022-09-11T11:44:15.653Z,2.20
2022-09-11T11:46:46.036Z,2.67
2022-09-11T11:49:17.450Z,2.30
2022-09-11T11:51:48.631Z,2.63
2022-09-11T11:54:20.709Z,2.77
2022-09-11T11:56:50.224Z,2.40
2022-09-11T11:59:23.546Z,2.83
2022-09-11T12:01:56.068Z,2.70
2022-09-11T12:04:31.114Z,1.97
2022-09-11T12:06:59.872Z,2.50
2022-09-11T12:09:33.776Z,3.23
2022-09-11T12:12:05.803Z,2.77
2022-09-11T12:14:34.326Z,2.47
2022-09-11T12:17:21.870Z,2.80
2022-09-11T12:20:17.318Z,2.80
2022-09-11T12:22:48.817Z,3.40
2022-09-11T12:25:49.589Z,3.27
2022-09-11T12:28:27.285Z,2.63
2022-09-11T12:30:58.140Z,3.03
2022-09-11T12:33:54.643Z,2.87
2022-09-11T12:36:38.661Z,2.70
2022-09-11T12:39:18.467Z,2.70
2022-09-11T12:41:49.355Z,2.97
2022-09-11T12:44:31.768Z,2.90
2022-09-11T12:47:12.619Z,3.30
2022-09-11T12:49:41.973Z,2.67
2022-09-11T12:52:20.861Z,2.80
2022-09-11T12:54:48.907Z,2.50
2022-09-11T12:57:29.200Z,2.53
2022-09-11T12:59:59.477Z,3.10
2022-09-11T13:02:30.067Z,2.73
2022-09-11T13:04:58.212Z,3.23
2022-09-11T13:07:32.070Z,2.70
2022-09-11T13:10:01.658Z,2.80
2022-09-11T13:12:54.121Z,2.97
2022-09-11T13:15:39.032Z,2.53
2022-09-11T13:18:32.306Z,3.60
2022-09-11T13:21:01.945Z,2.73
2022-09-11T13:23:30.346Z,3.10
2022-09-11T13:25:59.023Z,3.13
2022-09-11T13:28:31.226Z,2.57
2022-09-11T13:31:02.255Z,2.80
2022-09-11T13:33:31.237Z,3.30
2022-09-11T13:35:59.510Z,3.10
2022-09-11T13:38:30.075Z,2.40
2022-09-11T13:40:59.074Z,2.10
2022-09-11T13:43:31.074Z,2.30
2022-09-11T13:46:22.392Z,2.63
2022-09-11T13:48:51.535Z,2.00
2022-09-11T13:51:22.158Z,2.60
2022-09-11T13:53:58.113Z,2.13
2022-09-11T13:56:41.634Z,2.27
2022-09-11T13:59:57.193Z,2.70
2022-09-11T14:02:50.812Z,2.90
2022-09-11T14:05:22.138Z,1.90
2022-09-11T14:07:57.374Z,2.70
2022-09-11T14:10:29.380Z,2.87
2022-09-11T14:13:16.291Z,2.47
2022-09-11T14:15:50.653Z,3.00
2022-09-11T14:18:25.332Z,2.80
2022-09-11T14:20:55.080Z,3.27
2022-09-11T14:23:25.264Z,2.53
2022-09-11T14:26:07.551Z,2.47
2022-09-11T14:28:51.641Z,2.30
2022-09-11T14:31:36.423Z,2.40
2022-09-11T14:34:15.152Z,2.13
2022-09-11T14:36:45.183Z,2.00
2022-09-11T14:39:15.786Z,2.20
2022-09-11T14:41:45.690Z,1.90
2022-09-11T14:44:14.808Z,2.20
2022-09-11T14:46:44.575Z,2.50
2022-09-11T14:49:15.484Z,2.38
2022-09-11T14:51:45.245Z,2.10
2022-09-11T14:54:15.433Z,2.28
2022-09-11T14:56:44.846Z,2.47
2022-09-11T14:59:14.014Z,2.10
2022-09-11T15:01:45.229Z,3.00
2022-09-11T15:04:17.739Z,2.65
2022-09-11T15:06:46.040Z,2.42
2022-09-11T15:09:14.204Z,2.38
2022-09-11T15:11:43.942Z,2.20
2022-09-11T15:14:27.490Z,2.15
2022-09-11T15:17:03.277Z,2.65
2022-09-11T15:19:31.516Z,1.92
2022-09-11T15:22:00.779Z,2.13
2022-09-11T15:24:29.075Z,2.30
2022-09-11T15:26:57.313Z,2.22
2022-09-11T15:29:30.728Z,2.05
2022-09-11T15:32:01.157Z,2.08
2022-09-11T15:34:33.314Z,2.53
2022-09-11T15:37:01.555Z,2.40
2022-09-11T15:39:30.274Z,2.45
2022-09-11T15:41:58.515Z,2.70
2022-09-11T15:44:27.667Z,2.75
2022-09-11T15:46:56.276Z,1.95
2022-09-11T15:49:25.273Z,2.38
2022-09-11T15:51:55.017Z,2.58
2022-09-11T15:54:24.366Z,2.65
2022-09-11T15:56:52.937Z,1.83
2022-09-11T15:59:21.187Z,1.43
2022-09-11T16:01:49.488Z,1.80
2022-09-11T16:04:20.358Z,1.70
2022-09-11T16:06:48.930Z,1.97
2022-09-11T16:09:20.663Z,2.47
2022-09-11T16:11:50.469Z,1.97
2022-09-11T16:14:19.119Z,2.10
2022-09-11T16:16:48.117Z,2.20
2022-09-11T16:19:16.558Z,2.20
2022-09-11T16:21:44.695Z,1.90
2022-09-11T16:24:19.336Z,2.00
2022-09-11T16:26:47.586Z,1.97
2022-09-11T16:29:18.310Z,2.00
2022-09-11T16:31:46.591Z,1.90
2022-09-11T16:34:15.108Z,2.10
2022-09-11T16:36:43.265Z,2.30
2022-09-11T16:39:12.178Z,2.30
2022-09-11T16:41:41.659Z,2.00
2022-09-11T16:44:11.998Z,1.90
2022-09-11T16:46:40.761Z,1.77
2022-09-11T16:49:09.266Z,2.47
2022-09-11T16:51:37.640Z,2.27
2022-09-11T16:54:05.929Z,2.40
2022-09-11T16:56:33.999Z,1.90
2022-09-11T16:59:03.687Z,2.50
2022-09-11T17:01:31.865Z,2.20
2022-09-11T17:04:00.254Z,2.20
2022-09-11T17:06:30.302Z,2.73
2022-09-11T17:09:00.273Z,2.30
2022-09-11T17:11:30.171Z,2.20
2022-09-11T17:14:00.691Z,2.40
2022-09-11T17:16:32.380Z,2.50
2022-09-11T17:19:01.588Z,2.63
2022-09-11T17:21:30.068Z,2.20
2022-09-11T17:24:07.503Z,2.40
2022-09-11T17:26:36.148Z,2.17
2022-09-11T17:29:04.757Z,2.30
2022-09-11T17:31:34.449Z,2.40
2022-09-11T17:34:02.915Z,2.00
2022-09-11T17:36:31.006Z,2.30
2022-09-11T17:38:59.402Z,2.40
2022-09-11T17:41:27.673Z,2.30
2022-09-11T17:43:55.886Z,2.13
2022-09-11T17:46:25.257Z,2.20
2022-09-11T17:48:54.952Z,2.43
2022-09-11T17:51:24.197Z,2.63
2022-09-11T17:53:53.085Z,3.20
2022-09-11T17:56:22.078Z,2.90
2022-09-11T17:58:51.486Z,3.17
2022-09-11T18:01:20.007Z,2.50
2022-09-11T18:03:51.293Z,2.30
2022-09-11T18:06:23.539Z,2.53
2022-09-11T18:08:51.758Z,2.50
2022-09-11T18:11:20.014Z,2.70
2022-09-11T18:13:48.452Z,2.60
2022-09-11T18:16:17.514Z,2.20
2022-09-11T18:18:45.811Z,2.17
2022-09-11T18:21:14.202Z,2.20
2022-09-11T18:23:44.814Z,2.07
2022-09-11T18:26:19.956Z,2.30
2022-09-11T18:28:49.268Z,2.10
2022-09-11T18:31:20.423Z,2.40
2022-09-11T18:33:54.656Z,2.60
2022-09-11T18:36:23.634Z,2.77
2022-09-11T18:38:53.533Z,2.50
2022-09-11T18:41:23.685Z,2.43
2022-09-11T18:43:55.617Z,2.93
2022-09-11T18:46:23.976Z,2.40
2022-09-11T18:48:52.674Z,2.20
2022-09-11T18:51:21.393Z,2.40
2022-09-11T18:53:52.057Z,2.30
2022-09-11T18:56:22.062Z,2.77
2022-09-11T18:58:52.284Z,2.83
2022-09-11T19:01:24.117Z,2.47
2022-09-11T19:03:53.292Z,2.53
2022-09-11T19:06:22.297Z,2.50
2022-09-11T19:08:50.969Z,2.40
2022-09-11T19:11:21.013Z,2.47
2022-09-11T19:13:51.036Z,2.37
2022-09-11T19:16:19.687Z,2.60
2022-09-11T19:18:47.954Z,3.10
2022-09-11T19:21:20.187Z,3.50
2022-09-11T19:23:49.629Z,3.60
2022-09-11T19:26:19.214Z,3.33
2022-09-11T19:28:47.626Z,3.20
2022-09-11T19:31:18.295Z,3.23
2022-09-11T19:33:46.443Z,3.57
2022-09-11T19:36:17.010Z,3.93
2022-09-11T19:38:45.889Z,3.27
2022-09-11T19:41:24.233Z,3.50
2022-09-11T19:43:54.191Z,3.23
2022-09-11T19:46:25.119Z,3.50
2022-09-11T19:48:53.610Z,3.50
2022-09-11T19:51:23.799Z,3.60
2022-09-11T19:53:52.700Z,3.80
2022-09-11T19:56:20.914Z,3.77
2022-09-11T19:58:49.174Z,3.47
2022-09-11T20:01:18.297Z,3.90
2022-09-11T20:03:47.921Z,3.80
2022-09-11T20:06:17.015Z,3.80
2022-09-11T20:08:45.887Z,4.33
2022-09-11T20:11:16.172Z,4.70
2022-09-11T20:13:45.688Z,5.30
2022-09-11T20:16:15.775Z,5.00
2022-09-11T20:18:44.109Z,4.90
2022-09-11T20:21:15.633Z,5.67
2022-09-11T20:23:45.208Z,5.50
2022-09-11T20:26:17.272Z,5.77
2022-09-11T20:28:45.725Z,5.97
2022-09-11T20:31:15.060Z,5.17
2022-09-11T20:33:43.330Z,5.50
2022-09-11T20:36:13.280Z,5.47
2022-09-11T20:38:41.706Z,4.83
2022-09-11T20:41:14.285Z,5.93
2022-09-11T20:43:42.684Z,5.13
2022-09-11T20:46:11.165Z,5.63
2022-09-11T20:48:39.414Z,5.27
2022-09-11T20:51:08.968Z,5.70
2022-09-11T20:53:39.018Z,6.00
2022-09-11T20:56:08.990Z,6.17
2022-09-11T20:58:37.242Z,6.03
2022-09-11T21:01:05.806Z,6.53
2022-09-11T21:03:33.968Z,5.50
2022-09-11T21:06:06.921Z,6.23
2022-09-11T21:08:35.260Z,5.80
2022-09-11T21:11:05.275Z,6.03
2022-09-11T21:13:35.843Z,5.87
2022-09-11T21:16:07.134Z,6.10
2022-09-11T21:18:35.805Z,6.17
2022-09-11T21:21:04.381Z,5.93
2022-09-11T21:23:32.562Z,6.13
2022-09-11T21:26:00.717Z,7.30
2022-09-11T21:28:31.899Z,6.80
2022-09-11T21:31:00.174Z,6.53
2022-09-11T21:33:28.335Z,6.47
2022-09-11T21:35:56.600Z,6.97
2022-09-11T21:38:28.444Z,7.40
2022-09-11T21:40:56.816Z,6.97
2022-09-11T21:43:24.990Z,6.63
2022-09-11T21:45:54.652Z,7.03
2022-09-11T21:48:22.760Z,7.97
2022-09-11T21:50:51.126Z,7.47
2022-09-11T21:53:19.595Z,8.00
2022-09-11T21:55:48.620Z,7.63
2022-09-11T21:58:17.430Z,8.43
2022-09-11T22:00:47.866Z,7.73
2022-09-11T22:03:18.575Z,8.47
2022-09-11T22:05:48.821Z,8.80
2022-09-11T22:08:18.513Z,9.37
2022-09-11T22:10:49.925Z,8.87
2022-09-11T22:13:18.229Z,10.13
2022-09-11T22:15:47.182Z,10.30
2022-09-11T22:18:15.276Z,9.57
2022-09-11T22:20:53.647Z,9.83
2022-09-11T22:23:22.171Z,10.53
2022-09-11T22:25:50.342Z,10.97
2022-09-11T22:28:18.526Z,11.97
2022-09-11T22:30:46.720Z,12.30
2022-09-11T22:33:17.496Z,12.47
2022-09-11T22:35:49.516Z,12.83
2022-09-11T22:38:17.742Z,13.33
2022-09-11T22:40:45.906Z,13.77
2022-09-11T22:45:56.436Z,14.37
2022-09-11T22:48:24.521Z,13.87
2022-09-11T22:50:54.395Z,13.90
2022-09-11T22:53:22.505Z,14.37
2022-09-11T22:55:54.120Z,15.33
2022-09-11T22:58:22.571Z,15.67
2022-09-11T23:00:51.365Z,16.40
2022-09-11T23:03:19.562Z,17.03
2022-09-11T23:06:05.070Z,18.27
2022-09-11T23:08:39.100Z,17.87
2022-09-11T23:11:07.849Z,17.10
2022-09-11T23:13:37.814Z,17.50
2022-09-11T23:16:13.013Z,18.53
2022-09-11T23:18:41.413Z,17.10
2022-09-11T23:21:09.543Z,18.93
2022-09-11T23:23:42.379Z,18.97
2022-09-11T23:26:12.006Z,19.07
2022-09-11T23:28:40.513Z,18.23
2022-09-11T23:31:13.190Z,19.87
2022-09-11T23:33:42.046Z,19.80
2022-09-11T23:36:11.502Z,19.17
2022-09-11T23:38:41.107Z,19.23
2022-09-11T23:41:09.340Z,19.57
2022-09-11T23:43:37.414Z,19.47
2022-09-11T23:46:05.759Z,19.83
2022-09-11T23:48:33.902Z,19.67
2022-09-11T23:51:02.215Z,19.27
2022-09-11T23:53:30.486Z,19.67
2022-09-11T23:56:00.269Z,19.20
2022-09-11T23:58:28.437Z,19.13
